sensor_id;sensor_type;location;lat;lon;timestamp;P1;durP1;ratioP1;P2;durP2;ratioP2
8361;SDS011;4218;48.326;14.304;2022-09-09T00:01:10;0.80;;;0.80;;
8361;SDS011;4218;48.326;14.304;2022-09-09T00:04:16;1.00;;;1.00;;
8361;SDS011;4218;48.326;14.304;2022-09-09T00:07:58;1.10;;;1.03;;
8361;SDS011;4218;48.326;14.304;2022-09-09T00:10:29;2.37;;;1.07;;
8361;SDS011;4218;48.326;14.304;2022-09-09T00:16:10;2.10;;;1.60;;
8361;SDS011;4218;48.326;14.304;2022-09-09T00:21:26;1.80;;;1.50;;
8361;SDS011;4218;48.326;14.304;2022-09-09T00:24:24;1.73;;;1.63;;
8361;SDS011;4218;48.326;14.304;2022-09-09T00:27:04;1.20;;;1.20;;
8361;SDS011;4218;48.326;14.304;2022-09-09T00:32:34;1.00;;;1.00;;
8361;SDS011;4218;48.326;14.304;2022-09-09T00:35:10;0.90;;;0.90;;
8361;SDS011;4218;48.326;14.304;2022-09-09T00:37:40;1.00;;;1.00;;
8361;SDS011;4218;48.326;14.304;2022-09-09T00:40:22;1.10;;;1.10;;
8361;SDS011;4218;48.326;14.304;2022-09-09T00:42:59;4.83;;;1.50;;
8361;SDS011;4218;48.326;14.304;2022-09-09T00:48:10;1.67;;;1.57;;
8361;SDS011;4218;48.326;14.304;2022-09-09T00:50:53;1.43;;;1.33;;
8361;SDS011;4218;48.326;14.304;2022-09-09T00:56:45;1.67;;;1.57;;
8361;SDS011;4218;48.326;14.304;2022-09-09T01:02:01;1.20;;;1.20;;
8361;SDS011;4218;48.326;14.304;2022-09-09T01:04:34;1.60;;;1.30;;
8361;SDS011;4218;48.326;14.304;2022-09-09T01:07:23;0.93;;;0.93;;
8361;SDS011;4218;48.326;14.304;2022-09-09T01:09:52;1.00;;;0.77;;
8361;SDS011;4218;48.326;14.304;2022-09-09T01:12:25;0.83;;;0.83;;
8361;SDS011;4218;48.326;14.304;2022-09-09T01:15:12;1.00;;;1.00;;
8361;SDS011;4218;48.326;14.304;2022-09-09T01:17:47;0.97;;;0.97;;
8361;SDS011;4218;48.326;14.304;2022-09-09T01:20:24;1.53;;;1.23;;
8361;SDS011;4218;48.326;14.304;2022-09-09T01:25:22;1.50;;;1.40;;
8361;SDS011;4218;48.326;14.304;2022-09-09T01:27:59;1.63;;;1.53;;
8361;SDS011;4218;48.326;14.304;2022-09-09T01:30:27;1.20;;;1.20;;
8361;SDS011;4218;48.326;14.304;2022-09-09T01:32:54;1.53;;;1.43;;
8361;SDS011;4218;48.326;14.304;2022-09-09T01:38:15;1.83;;;1.73;;
8361;SDS011;4218;48.326;14.304;2022-09-09T01:40:42;4.20;;;1.50;;
8361;SDS011;4218;48.326;14.304;2022-09-09T01:43:09;1.60;;;1.50;;
8361;SDS011;4218;48.326;14.304;2022-09-09T01:45:34;1.00;;;1.00;;
8361;SDS011;4218;48.326;14.304;2022-09-09T01:48:00;2.07;;;1.20;;
8361;SDS011;4218;48.326;14.304;2022-09-09T01:50:27;1.50;;;1.23;;
8361;SDS011;4218;48.326;14.304;2022-09-09T01:52:53;0.90;;;0.90;;
8361;SDS011;4218;48.326;14.304;2022-09-09T01:55:31;1.17;;;1.13;;
8361;SDS011;4218;48.326;14.304;2022-09-09T02:01:22;0.70;;;0.70;;
8361;SDS011;4218;48.326;14.304;2022-09-09T02:03:56;0.80;;;0.80;;
8361;SDS011;4218;48.326;14.304;2022-09-09T02:06:27;1.80;;;0.70;;
8361;SDS011;4218;48.326;14.304;2022-09-09T02:09:00;0.90;;;0.90;;
8361;SDS011;4218;48.326;14.304;2022-09-09T02:11:29;1.00;;;1.00;;
8361;SDS011;4218;48.326;14.304;2022-09-09T02:14:03;1.30;;;1.20;;
8361;SDS011;4218;48.326;14.304;2022-09-09T02:16:44;1.40;;;1.10;;
8361;SDS011;4218;48.326;14.304;2022-09-09T02:19:22;0.97;;;0.97;;
8361;SDS011;4218;48.326;14.304;2022-09-09T02:21:56;1.00;;;1.00;;
8361;SDS011;4218;48.326;14.304;2022-09-09T02:24:24;0.97;;;0.97;;
8361;SDS011;4218;48.326;14.304;2022-09-09T02:26:56;0.87;;;0.87;;
8361;SDS011;4218;48.326;14.304;2022-09-09T02:29:30;1.03;;;1.03;;
8361;SDS011;4218;48.326;14.304;2022-09-09T02:31:59;1.47;;;1.03;;
8361;SDS011;4218;48.326;14.304;2022-09-09T02:34:29;1.43;;;1.30;;
8361;SDS011;4218;48.326;14.304;2022-09-09T02:36:57;1.30;;;1.20;;
8361;SDS011;4218;48.326;14.304;2022-09-09T02:39:24;1.20;;;1.20;;
8361;SDS011;4218;48.326;14.304;2022-09-09T02:41:50;1.57;;;1.47;;
8361;SDS011;4218;48.326;14.304;2022-09-09T02:44:16;2.10;;;1.87;;
8361;SDS011;4218;48.326;14.304;2022-09-09T02:46:47;1.53;;;1.43;;
8361;SDS011;4218;48.326;14.304;2022-09-09T02:52:07;1.53;;;1.43;;
8361;SDS011;4218;48.326;14.304;2022-09-09T02:54:40;2.00;;;1.90;;
8361;SDS011;4218;48.326;14.304;2022-09-09T02:57:16;3.13;;;1.80;;
8361;SDS011;4218;48.326;14.304;2022-09-09T02:59:44;2.40;;;2.20;;
8361;SDS011;4218;48.326;14.304;2022-09-09T03:02:11;1.60;;;1.50;;
8361;SDS011;4218;48.326;14.304;2022-09-09T03:04:39;3.50;;;1.60;;
8361;SDS011;4218;48.326;14.304;2022-09-09T03:07:09;3.67;;;1.63;;
8361;SDS011;4218;48.326;14.304;2022-09-09T03:09:35;1.93;;;1.77;;
8361;SDS011;4218;48.326;14.304;2022-09-09T03:12:00;1.60;;;1.50;;
8361;SDS011;4218;48.326;14.304;2022-09-09T03:14:26;1.63;;;1.53;;
8361;SDS011;4218;48.326;14.304;2022-09-09T03:16:52;1.80;;;1.50;;
8361;SDS011;4218;48.326;14.304;2022-09-09T03:19:18;1.80;;;1.70;;
8361;SDS011;4218;48.326;14.304;2022-09-09T03:21:45;2.33;;;1.50;;
8361;SDS011;4218;48.326;14.304;2022-09-09T03:24:13;1.57;;;1.47;;
8361;SDS011;4218;48.326;14.304;2022-09-09T03:26:39;1.97;;;1.87;;
8361;SDS011;4218;48.326;14.304;2022-09-09T03:29:06;2.60;;;1.77;;
8361;SDS011;4218;48.326;14.304;2022-09-09T03:31:35;1.70;;;1.60;;
8361;SDS011;4218;48.326;14.304;2022-09-09T03:34:01;2.00;;;1.90;;
8361;SDS011;4218;48.326;14.304;2022-09-09T03:36:27;2.47;;;2.27;;
8361;SDS011;4218;48.326;14.304;2022-09-09T03:38:53;1.87;;;1.67;;
8361;SDS011;4218;48.326;14.304;2022-09-09T03:41:20;2.17;;;2.00;;
8361;SDS011;4218;48.326;14.304;2022-09-09T03:43:52;2.20;;;2.00;;
8361;SDS011;4218;48.326;14.304;2022-09-09T03:46:22;2.13;;;1.93;;
8361;SDS011;4218;48.326;14.304;2022-09-09T03:48:50;1.93;;;1.83;;
8361;SDS011;4218;48.326;14.304;2022-09-09T03:51:18;4.40;;;2.43;;
8361;SDS011;4218;48.326;14.304;2022-09-09T03:53:47;2.97;;;2.37;;
8361;SDS011;4218;48.326;14.304;2022-09-09T03:56:12;3.37;;;2.43;;
8361;SDS011;4218;48.326;14.304;2022-09-09T03:58:39;2.40;;;2.20;;
8361;SDS011;4218;48.326;14.304;2022-09-09T04:01:06;2.00;;;1.90;;
8361;SDS011;4218;48.326;14.304;2022-09-09T04:03:38;1.73;;;1.63;;
8361;SDS011;4218;48.326;14.304;2022-09-09T04:06:04;5.00;;;1.70;;
8361;SDS011;4218;48.326;14.304;2022-09-09T04:08:32;1.63;;;1.53;;
8361;SDS011;4218;48.326;14.304;2022-09-09T04:11:00;1.87;;;1.50;;
8361;SDS011;4218;48.326;14.304;2022-09-09T04:13:31;2.77;;;1.57;;
8361;SDS011;4218;48.326;14.304;2022-09-09T04:16:02;2.63;;;1.50;;
8361;SDS011;4218;48.326;14.304;2022-09-09T04:18:28;3.20;;;2.00;;
8361;SDS011;4218;48.326;14.304;2022-09-09T04:20:54;2.53;;;1.73;;
8361;SDS011;4218;48.326;14.304;2022-09-09T04:23:25;1.90;;;1.80;;
8361;SDS011;4218;48.326;14.304;2022-09-09T04:25:54;2.67;;;1.90;;
8361;SDS011;4218;48.326;14.304;2022-09-09T04:28:21;2.00;;;1.77;;
8361;SDS011;4218;48.326;14.304;2022-09-09T04:30:49;2.60;;;1.77;;
8361;SDS011;4218;48.326;14.304;2022-09-09T04:33:17;3.40;;;2.07;;
8361;SDS011;4218;48.326;14.304;2022-09-09T04:35:44;1.87;;;1.73;;
8361;SDS011;4218;48.326;14.304;2022-09-09T04:38:10;2.07;;;1.87;;
8361;SDS011;4218;48.326;14.304;2022-09-09T04:40:36;1.90;;;1.80;;
8361;SDS011;4218;48.326;14.304;2022-09-09T04:43:02;3.57;;;2.23;;
8361;SDS011;4218;48.326;14.304;2022-09-09T04:45:30;1.90;;;1.80;;
8361;SDS011;4218;48.326;14.304;2022-09-09T04:47:56;2.73;;;2.53;;
8361;SDS011;4218;48.326;14.304;2022-09-09T04:50:21;1.90;;;1.80;;
8361;SDS011;4218;48.326;14.304;2022-09-09T04:52:48;2.30;;;2.20;;
8361;SDS011;4218;48.326;14.304;2022-09-09T04:55:13;2.27;;;2.07;;
8361;SDS011;4218;48.326;14.304;2022-09-09T04:57:39;3.47;;;2.10;;
8361;SDS011;4218;48.326;14.304;2022-09-09T05:00:05;3.07;;;1.90;;
8361;SDS011;4218;48.326;14.304;2022-09-09T05:02:32;10.17;;;2.33;;
8361;SDS011;4218;48.326;14.304;2022-09-09T05:04:57;3.40;;;2.00;;
8361;SDS011;4218;48.326;14.304;2022-09-09T05:07:23;3.63;;;2.30;;
8361;SDS011;4218;48.326;14.304;2022-09-09T05:09:51;2.03;;;1.93;;
8361;SDS011;4218;48.326;14.304;2022-09-09T05:12:16;2.70;;;2.13;;
8361;SDS011;4218;48.326;14.304;2022-09-09T05:14:42;2.47;;;2.07;;
8361;SDS011;4218;48.326;14.304;2022-09-09T05:17:08;3.00;;;2.03;;
8361;SDS011;4218;48.326;14.304;2022-09-09T05:19:34;1.90;;;1.80;;
8361;SDS011;4218;48.326;14.304;2022-09-09T05:21:59;2.47;;;1.93;;
8361;SDS011;4218;48.326;14.304;2022-09-09T05:24:26;2.30;;;2.00;;
8361;SDS011;4218;48.326;14.304;2022-09-09T05:26:51;3.57;;;2.87;;
8361;SDS011;4218;48.326;14.304;2022-09-09T05:29:16;2.00;;;1.90;;
8361;SDS011;4218;48.326;14.304;2022-09-09T05:31:44;2.30;;;2.10;;
8361;SDS011;4218;48.326;14.304;2022-09-09T05:34:10;2.27;;;2.13;;
8361;SDS011;4218;48.326;14.304;2022-09-09T05:36:37;3.33;;;3.00;;
8361;SDS011;4218;48.326;14.304;2022-09-09T05:39:03;2.00;;;1.90;;
8361;SDS011;4218;48.326;14.304;2022-09-09T05:41:28;4.00;;;2.50;;
8361;SDS011;4218;48.326;14.304;2022-09-09T05:43:54;3.87;;;2.80;;
8361;SDS011;4218;48.326;14.304;2022-09-09T05:46:20;3.67;;;3.20;;
8361;SDS011;4218;48.326;14.304;2022-09-09T05:48:47;3.03;;;2.73;;
8361;SDS011;4218;48.326;14.304;2022-09-09T05:51:16;3.87;;;3.23;;
8361;SDS011;4218;48.326;14.304;2022-09-09T05:53:43;5.87;;;3.40;;
8361;SDS011;4218;48.326;14.304;2022-09-09T05:56:13;4.07;;;2.97;;
8361;SDS011;4218;48.326;14.304;2022-09-09T05:58:40;3.63;;;3.20;;
8361;SDS011;4218;48.326;14.304;2022-09-09T06:01:27;3.73;;;2.83;;
8361;SDS011;4218;48.326;14.304;2022-09-09T06:03:54;4.93;;;3.60;;
8361;SDS011;4218;48.326;14.304;2022-09-09T06:06:21;3.87;;;2.83;;
8361;SDS011;4218;48.326;14.304;2022-09-09T06:08:56;8.00;;;4.23;;
8361;SDS011;4218;48.326;14.304;2022-09-09T06:11:24;6.10;;;4.37;;
8361;SDS011;4218;48.326;14.304;2022-09-09T06:13:51;8.20;;;4.73;;
8361;SDS011;4218;48.326;14.304;2022-09-09T06:16:24;7.53;;;4.10;;
8361;SDS011;4218;48.326;14.304;2022-09-09T06:18:51;7.50;;;4.20;;
8361;SDS011;4218;48.326;14.304;2022-09-09T06:21:19;11.50;;;5.13;;
8361;SDS011;4218;48.326;14.304;2022-09-09T06:23:55;7.20;;;4.50;;
8361;SDS011;4218;48.326;14.304;2022-09-09T06:28:51;4.97;;;4.47;;
8361;SDS011;4218;48.326;14.304;2022-09-09T06:31:22;6.10;;;4.27;;
8361;SDS011;4218;48.326;14.304;2022-09-09T06:33:49;6.17;;;5.03;;
8361;SDS011;4218;48.326;14.304;2022-09-09T06:36:16;7.00;;;5.33;;
8361;SDS011;4218;48.326;14.304;2022-09-09T06:38:44;6.30;;;4.30;;
8361;SDS011;4218;48.326;14.304;2022-09-09T06:41:11;9.17;;;5.23;;
8361;SDS011;4218;48.326;14.304;2022-09-09T06:43:37;7.83;;;5.23;;
8361;SDS011;4218;48.326;14.304;2022-09-09T06:48:41;8.80;;;4.70;;
8361;SDS011;4218;48.326;14.304;2022-09-09T06:51:09;5.37;;;4.30;;
8361;SDS011;4218;48.326;14.304;2022-09-09T06:53:39;6.03;;;4.73;;
8361;SDS011;4218;48.326;14.304;2022-09-09T06:58:34;6.00;;;3.97;;
8361;SDS011;4218;48.326;14.304;2022-09-09T07:01:04;8.00;;;4.03;;
8361;SDS011;4218;48.326;14.304;2022-09-09T07:03:31;4.43;;;2.97;;
8361;SDS011;4218;48.326;14.304;2022-09-09T07:05:57;7.03;;;4.20;;
8361;SDS011;4218;48.326;14.304;2022-09-09T07:08:23;8.20;;;4.00;;
8361;SDS011;4218;48.326;14.304;2022-09-09T07:10:49;5.80;;;4.73;;
8361;SDS011;4218;48.326;14.304;2022-09-09T07:13:16;5.93;;;3.80;;
8361;SDS011;4218;48.326;14.304;2022-09-09T07:15:41;8.43;;;4.60;;
8361;SDS011;4218;48.326;14.304;2022-09-09T07:18:07;6.07;;;4.20;;
8361;SDS011;4218;48.326;14.304;2022-09-09T07:20:34;6.10;;;4.30;;
8361;SDS011;4218;48.326;14.304;2022-09-09T07:23:00;5.27;;;4.57;;
8361;SDS011;4218;48.326;14.304;2022-09-09T07:25:25;4.23;;;3.87;;
8361;SDS011;4218;48.326;14.304;2022-09-09T07:27:55;6.60;;;4.63;;
8361;SDS011;4218;48.326;14.304;2022-09-09T07:30:21;6.70;;;5.63;;
8361;SDS011;4218;48.326;14.304;2022-09-09T07:32:46;5.33;;;4.83;;
8361;SDS011;4218;48.326;14.304;2022-09-09T07:35:12;8.73;;;5.97;;
8361;SDS011;4218;48.326;14.304;2022-09-09T07:37:37;5.23;;;3.93;;
8361;SDS011;4218;48.326;14.304;2022-09-09T07:40:03;6.97;;;4.60;;
8361;SDS011;4218;48.326;14.304;2022-09-09T07:42:30;4.77;;;3.90;;
8361;SDS011;4218;48.326;14.304;2022-09-09T07:44:55;5.07;;;4.10;;
8361;SDS011;4218;48.326;14.304;2022-09-09T07:47:20;5.47;;;4.07;;
8361;SDS011;4218;48.326;14.304;2022-09-09T07:49:46;5.60;;;5.03;;
8361;SDS011;4218;48.326;14.304;2022-09-09T07:52:12;6.23;;;5.20;;
8361;SDS011;4218;48.326;14.304;2022-09-09T07:54:37;7.47;;;5.00;;
8361;SDS011;4218;48.326;14.304;2022-09-09T07:57:03;8.73;;;4.87;;
8361;SDS011;4218;48.326;14.304;2022-09-09T07:59:29;5.73;;;4.80;;
8361;SDS011;4218;48.326;14.304;2022-09-09T08:01:55;5.70;;;4.27;;
8361;SDS011;4218;48.326;14.304;2022-09-09T08:04:21;6.57;;;4.40;;
8361;SDS011;4218;48.326;14.304;2022-09-09T08:06:58;5.43;;;4.17;;
8361;SDS011;4218;48.326;14.304;2022-09-09T08:09:26;6.23;;;3.77;;
8361;SDS011;4218;48.326;14.304;2022-09-09T08:11:54;7.57;;;4.10;;
8361;SDS011;4218;48.326;14.304;2022-09-09T08:14:21;5.67;;;4.50;;
8361;SDS011;4218;48.326;14.304;2022-09-09T08:16:48;6.73;;;4.37;;
8361;SDS011;4218;48.326;14.304;2022-09-09T08:19:14;7.03;;;3.80;;
8361;SDS011;4218;48.326;14.304;2022-09-09T08:21:41;7.67;;;3.90;;
8361;SDS011;4218;48.326;14.304;2022-09-09T08:24:08;6.30;;;4.82;;
8361;SDS011;4218;48.326;14.304;2022-09-09T08:26:39;5.53;;;4.70;;
8361;SDS011;4218;48.326;14.304;2022-09-09T08:29:09;6.47;;;4.30;;
8361;SDS011;4218;48.326;14.304;2022-09-09T08:31:40;6.93;;;4.80;;
8361;SDS011;4218;48.326;14.304;2022-09-09T08:34:17;8.97;;;5.13;;
8361;SDS011;4218;48.326;14.304;2022-09-09T08:36:45;5.13;;;4.57;;
8361;SDS011;4218;48.326;14.304;2022-09-09T08:39:12;6.37;;;5.23;;
8361;SDS011;4218;48.326;14.304;2022-09-09T08:47:29;5.00;;;4.50;;
8361;SDS011;4218;48.326;14.304;2022-09-09T08:50:26;7.72;;;4.90;;
8361;SDS011;4218;48.326;14.304;2022-09-09T08:55:54;4.10;;;3.60;;
8361;SDS011;4218;48.326;14.304;2022-09-09T09:14:26;5.40;;;4.60;;
8361;SDS011;4218;48.326;14.304;2022-09-09T09:16:55;6.90;;;4.67;;
8361;SDS011;4218;48.326;14.304;2022-09-09T09:19:23;8.63;;;4.87;;
8361;SDS011;4218;48.326;14.304;2022-09-09T09:21:57;5.30;;;4.80;;
8361;SDS011;4218;48.326;14.304;2022-09-09T09:24:40;7.60;;;5.20;;
8361;SDS011;4218;48.326;14.304;2022-09-09T09:27:31;11.07;;;5.60;;
8361;SDS011;4218;48.326;14.304;2022-09-09T09:30:00;5.60;;;4.70;;
8361;SDS011;4218;48.326;14.304;2022-09-09T09:32:43;5.63;;;4.53;;
8361;SDS011;4218;48.326;14.304;2022-09-09T09:35:16;5.00;;;4.07;;
8361;SDS011;4218;48.326;14.304;2022-09-09T09:37:42;7.10;;;5.20;;
8361;SDS011;4218;48.326;14.304;2022-09-09T09:42:47;6.20;;;4.53;;
8361;SDS011;4218;48.326;14.304;2022-09-09T09:45:15;5.20;;;4.67;;
8361;SDS011;4218;48.326;14.304;2022-09-09T09:47:46;5.57;;;4.23;;
8361;SDS011;4218;48.326;14.304;2022-09-09T09:50:22;5.60;;;5.00;;
8361;SDS011;4218;48.326;14.304;2022-09-09T09:52:54;5.10;;;4.60;;
8361;SDS011;4218;48.326;14.304;2022-09-09T09:55:22;5.23;;;4.73;;
8361;SDS011;4218;48.326;14.304;2022-09-09T09:57:49;6.20;;;4.67;;
8361;SDS011;4218;48.326;14.304;2022-09-09T10:00:15;6.40;;;5.80;;
8361;SDS011;4218;48.326;14.304;2022-09-09T10:02:43;7.13;;;5.13;;
8361;SDS011;4218;48.326;14.304;2022-09-09T10:05:18;7.80;;;6.03;;
8361;SDS011;4218;48.326;14.304;2022-09-09T10:10:57;6.83;;;5.40;;
8361;SDS011;4218;48.326;14.304;2022-09-09T10:32:24;7.33;;;5.50;;
8361;SDS011;4218;48.326;14.304;2022-09-09T10:35:17;10.97;;;6.90;;
8361;SDS011;4218;48.326;14.304;2022-09-09T10:43:28;9.43;;;6.13;;
8361;SDS011;4218;48.326;14.304;2022-09-09T10:46:24;7.27;;;5.93;;
8361;SDS011;4218;48.326;14.304;2022-09-09T10:56:57;5.83;;;5.10;;
8361;SDS011;4218;48.326;14.304;2022-09-09T10:59:30;5.53;;;4.73;;
8361;SDS011;4218;48.326;14.304;2022-09-09T11:02:19;6.60;;;5.10;;
8361;SDS011;4218;48.326;14.304;2022-09-09T11:04:54;5.03;;;4.30;;
8361;SDS011;4218;48.326;14.304;2022-09-09T11:10:01;5.13;;;4.63;;
8361;SDS011;4218;48.326;14.304;2022-09-09T11:12:31;4.07;;;3.53;;
8361;SDS011;4218;48.326;14.304;2022-09-09T11:15:04;5.87;;;3.40;;
8361;SDS011;4218;48.326;14.304;2022-09-09T11:17:49;4.20;;;3.80;;
8361;SDS011;4218;48.326;14.304;2022-09-09T11:20:19;5.43;;;3.27;;
8361;SDS011;4218;48.326;14.304;2022-09-09T11:22:53;4.40;;;3.77;;
8361;SDS011;4218;48.326;14.304;2022-09-09T11:25:42;4.20;;;2.93;;
8361;SDS011;4218;48.326;14.304;2022-09-09T11:31:06;7.23;;;4.30;;
8361;SDS011;4218;48.326;14.304;2022-09-09T11:42:20;4.43;;;4.03;;
8361;SDS011;4218;48.326;14.304;2022-09-09T11:44:48;4.87;;;3.43;;
8361;SDS011;4218;48.326;14.304;2022-09-09T11:47:19;4.10;;;3.67;;
8361;SDS011;4218;48.326;14.304;2022-09-09T11:49:54;5.33;;;4.13;;
8361;SDS011;4218;48.326;14.304;2022-09-09T11:58:37;3.80;;;3.20;;
8361;SDS011;4218;48.326;14.304;2022-09-09T12:00:45;3.67;;;3.37;;
8361;SDS011;4218;48.326;14.304;2022-09-09T12:05:58;4.30;;;2.90;;
8361;SDS011;4218;48.326;14.304;2022-09-09T12:08:28;4.90;;;3.13;;
8361;SDS011;4218;48.326;14.304;2022-09-09T12:10:55;4.03;;;3.63;;
8361;SDS011;4218;48.326;14.304;2022-09-09T12:13:23;3.53;;;3.23;;
8361;SDS011;4218;48.326;14.304;2022-09-09T12:15:53;4.07;;;3.70;;
8361;SDS011;4218;48.326;14.304;2022-09-09T12:18:25;5.03;;;4.50;;
8361;SDS011;4218;48.326;14.304;2022-09-09T12:21:17;5.40;;;4.77;;
8361;SDS011;4218;48.326;14.304;2022-09-09T12:24:08;4.63;;;4.23;;
8361;SDS011;4218;48.326;14.304;2022-09-09T12:34:34;5.50;;;4.80;;
8361;SDS011;4218;48.326;14.304;2022-09-09T12:37:15;5.67;;;5.10;;
8361;SDS011;4218;48.326;14.304;2022-09-09T12:40:02;6.00;;;5.40;;
8361;SDS011;4218;48.326;14.304;2022-09-09T12:42:29;5.53;;;5.00;;
8361;SDS011;4218;48.326;14.304;2022-09-09T12:44:59;5.37;;;4.87;;
8361;SDS011;4218;48.326;14.304;2022-09-09T12:50:16;4.33;;;3.93;;
8361;SDS011;4218;48.326;14.304;2022-09-09T12:52:42;5.67;;;3.77;;
8361;SDS011;4218;48.326;14.304;2022-09-09T12:55:15;4.47;;;3.97;;
8361;SDS011;4218;48.326;14.304;2022-09-09T12:57:42;3.80;;;3.43;;
8361;SDS011;4218;48.326;14.304;2022-09-09T13:00:14;3.63;;;3.40;;
8361;SDS011;4218;48.326;14.304;2022-09-09T13:02:48;3.47;;;3.17;;
8361;SDS011;4218;48.326;14.304;2022-09-09T13:05:26;3.57;;;3.27;;
8361;SDS011;4218;48.326;14.304;2022-09-09T13:08:01;4.03;;;3.63;;
8361;SDS011;4218;48.326;14.304;2022-09-09T13:10:30;3.47;;;3.17;;
8361;SDS011;4218;48.326;14.304;2022-09-09T13:13:00;4.40;;;3.97;;
8361;SDS011;4218;48.326;14.304;2022-09-09T13:15:28;5.33;;;3.90;;
8361;SDS011;4218;48.326;14.304;2022-09-09T13:17:58;5.30;;;3.90;;
8361;SDS011;4218;48.326;14.304;2022-09-09T13:20:26;4.47;;;3.97;;
8361;SDS011;4218;48.326;14.304;2022-09-09T13:22:53;6.32;;;5.38;;
8361;SDS011;4218;48.326;14.304;2022-09-09T13:25:24;4.93;;;4.50;;
8361;SDS011;4218;48.326;14.304;2022-09-09T13:27:55;5.40;;;4.33;;
8361;SDS011;4218;48.326;14.304;2022-09-09T13:30:28;6.10;;;4.77;;
8361;SDS011;4218;48.326;14.304;2022-09-09T13:38:36;6.57;;;4.37;;
8361;SDS011;4218;48.326;14.304;2022-09-09T13:41:22;4.87;;;4.37;;
8361;SDS011;4218;48.326;14.304;2022-09-09T13:43:51;4.20;;;3.90;;
8361;SDS011;4218;48.326;14.304;2022-09-09T13:46:35;4.97;;;4.30;;
8361;SDS011;4218;48.326;14.304;2022-09-09T13:49:18;5.37;;;3.80;;
8361;SDS011;4218;48.326;14.304;2022-09-09T13:51:49;6.33;;;4.63;;
8361;SDS011;4218;48.326;14.304;2022-09-09T13:54:18;3.97;;;3.60;;
8361;SDS011;4218;48.326;14.304;2022-09-09T13:56:47;4.37;;;4.00;;
8361;SDS011;4218;48.326;14.304;2022-09-09T13:59:23;4.50;;;4.10;;
8361;SDS011;4218;48.326;14.304;2022-09-09T14:01:54;4.23;;;3.77;;
8361;SDS011;4218;48.326;14.304;2022-09-09T14:04:21;3.23;;;3.03;;
8361;SDS011;4218;48.326;14.304;2022-09-09T14:06:51;3.67;;;3.37;;
8361;SDS011;4218;48.326;14.304;2022-09-09T14:09:17;3.97;;;3.50;;
8361;SDS011;4218;48.326;14.304;2022-09-09T14:11:43;4.33;;;3.10;;
8361;SDS011;4218;48.326;14.304;2022-09-09T14:14:12;4.50;;;3.73;;
8361;SDS011;4218;48.326;14.304;2022-09-09T14:16:41;4.37;;;3.27;;
8361;SDS011;4218;48.326;14.304;2022-09-09T14:19:08;4.80;;;3.63;;
8361;SDS011;4218;48.326;14.304;2022-09-09T14:21:34;3.37;;;3.03;;
8361;SDS011;4218;48.326;14.304;2022-09-09T14:24:00;4.03;;;3.63;;
8361;SDS011;4218;48.326;14.304;2022-09-09T14:26:27;4.10;;;3.80;;
8361;SDS011;4218;48.326;14.304;2022-09-09T14:28:54;3.67;;;3.43;;
8361;SDS011;4218;48.326;14.304;2022-09-09T14:31:21;3.90;;;3.60;;
8361;SDS011;4218;48.326;14.304;2022-09-09T14:33:47;3.53;;;3.23;;
8361;SDS011;4218;48.326;14.304;2022-09-09T14:36:16;4.40;;;3.80;;
8361;SDS011;4218;48.326;14.304;2022-09-09T14:38:42;4.73;;;4.33;;
8361;SDS011;4218;48.326;14.304;2022-09-09T14:41:14;4.47;;;4.07;;
8361;SDS011;4218;48.326;14.304;2022-09-09T14:43:47;5.67;;;5.00;;
8361;SDS011;4218;48.326;14.304;2022-09-09T14:46:16;4.70;;;4.20;;
8361;SDS011;4218;48.326;14.304;2022-09-09T14:48:43;4.57;;;4.23;;
8361;SDS011;4218;48.326;14.304;2022-09-09T14:51:14;3.97;;;3.57;;
8361;SDS011;4218;48.326;14.304;2022-09-09T14:53:46;5.63;;;4.60;;
8361;SDS011;4218;48.326;14.304;2022-09-09T14:56:12;4.43;;;4.07;;
8361;SDS011;4218;48.326;14.304;2022-09-09T14:58:40;4.87;;;4.47;;
8361;SDS011;4218;48.326;14.304;2022-09-09T15:01:06;5.53;;;5.03;;
8361;SDS011;4218;48.326;14.304;2022-09-09T15:03:41;4.33;;;3.93;;
8361;SDS011;4218;48.326;14.304;2022-09-09T15:06:11;4.27;;;3.93;;
8361;SDS011;4218;48.326;14.304;2022-09-09T15:08:43;5.33;;;3.87;;
8361;SDS011;4218;48.326;14.304;2022-09-09T15:11:10;4.37;;;4.03;;
8361;SDS011;4218;48.326;14.304;2022-09-09T15:13:39;5.40;;;4.90;;
8361;SDS011;4218;48.326;14.304;2022-09-09T15:16:09;4.93;;;4.17;;
8361;SDS011;4218;48.326;14.304;2022-09-09T15:18:37;4.60;;;4.13;;
8361;SDS011;4218;48.326;14.304;2022-09-09T15:21:12;4.57;;;4.17;;
8361;SDS011;4218;48.326;14.304;2022-09-09T15:23:40;5.07;;;4.57;;
8361;SDS011;4218;48.326;14.304;2022-09-09T15:26:06;5.40;;;4.90;;
8361;SDS011;4218;48.326;14.304;2022-09-09T15:28:35;5.77;;;5.13;;
8361;SDS011;4218;48.326;14.304;2022-09-09T15:31:13;5.47;;;4.97;;
8361;SDS011;4218;48.326;14.304;2022-09-09T15:33:53;4.77;;;4.13;;
8361;SDS011;4218;48.326;14.304;2022-09-09T15:36:35;6.73;;;4.67;;
8361;SDS011;4218;48.326;14.304;2022-09-09T15:39:05;5.70;;;5.20;;
8361;SDS011;4218;48.326;14.304;2022-09-09T15:41:33;6.30;;;5.70;;
8361;SDS011;4218;48.326;14.304;2022-09-09T15:43:59;5.60;;;5.07;;
8361;SDS011;4218;48.326;14.304;2022-09-09T15:46:32;5.60;;;5.10;;
8361;SDS011;4218;48.326;14.304;2022-09-09T15:49:02;4.50;;;4.10;;
8361;SDS011;4218;48.326;14.304;2022-09-09T15:51:42;4.63;;;4.23;;
8361;SDS011;4218;48.326;14.304;2022-09-09T15:54:10;4.10;;;3.80;;
8361;SDS011;4218;48.326;14.304;2022-09-09T15:56:38;4.60;;;4.20;;
8361;SDS011;4218;48.326;14.304;2022-09-09T15:59:03;5.67;;;4.73;;
8361;SDS011;4218;48.326;14.304;2022-09-09T16:01:30;4.67;;;4.27;;
8361;SDS011;4218;48.326;14.304;2022-09-09T16:03:57;3.40;;;3.10;;
8361;SDS011;4218;48.326;14.304;2022-09-09T16:06:48;4.80;;;3.50;;
8361;SDS011;4218;48.326;14.304;2022-09-09T16:09:27;3.17;;;2.97;;
8361;SDS011;4218;48.326;14.304;2022-09-09T16:11:58;3.20;;;2.67;;
8361;SDS011;4218;48.326;14.304;2022-09-09T16:14:28;2.77;;;2.57;;
8361;SDS011;4218;48.326;14.304;2022-09-09T16:16:59;3.00;;;2.80;;
8361;SDS011;4218;48.326;14.304;2022-09-09T20:48:52;3.50;;;3.20;;
8361;SDS011;4218;48.326;14.304;2022-09-09T20:51:22;4.90;;;3.30;;
8361;SDS011;4218;48.326;14.304;2022-09-09T20:53:57;3.40;;;3.10;;
8361;SDS011;4218;48.326;14.304;2022-09-09T20:56:25;3.23;;;2.87;;
8361;SDS011;4218;48.326;14.304;2022-09-09T20:58:51;2.73;;;2.53;;
8361;SDS011;4218;48.326;14.304;2022-09-09T21:01:18;3.03;;;2.60;;
8361;SDS011;4218;48.326;14.304;2022-09-09T21:03:44;3.73;;;3.40;;
8361;SDS011;4218;48.326;14.304;2022-09-09T21:06:10;3.00;;;2.80;;
8361;SDS011;4218;48.326;14.304;2022-09-09T21:08:36;2.77;;;2.57;;
8361;SDS011;4218;48.326;14.304;2022-09-09T21:11:02;3.10;;;2.43;;
8361;SDS011;4218;48.326;14.304;2022-09-09T21:13:29;3.10;;;2.90;;
8361;SDS011;4218;48.326;14.304;2022-09-09T21:15:55;2.77;;;2.50;;
8361;SDS011;4218;48.326;14.304;2022-09-09T21:18:21;3.00;;;2.80;;
8361;SDS011;4218;48.326;14.304;2022-09-09T21:20:47;2.93;;;2.73;;
8361;SDS011;4218;48.326;14.304;2022-09-09T21:23:14;2.67;;;2.47;;
8361;SDS011;4218;48.326;14.304;2022-09-09T21:25:41;2.80;;;2.60;;
8361;SDS011;4218;48.326;14.304;2022-09-09T21:28:07;2.60;;;2.37;;
8361;SDS011;4218;48.326;14.304;2022-09-09T21:30:33;3.10;;;2.80;;
8361;SDS011;4218;48.326;14.304;2022-09-09T21:32:59;2.50;;;2.33;;
8361;SDS011;4218;48.326;14.304;2022-09-09T21:35:26;2.93;;;2.73;;
8361;SDS011;4218;48.326;14.304;2022-09-09T21:37:52;2.67;;;2.47;;
8361;SDS011;4218;48.326;14.304;2022-09-09T21:40:18;2.83;;;2.63;;
8361;SDS011;4218;48.326;14.304;2022-09-09T21:42:44;2.90;;;2.70;;
8361;SDS011;4218;48.326;14.304;2022-09-09T21:45:10;3.33;;;2.57;;
8361;SDS011;4218;48.326;14.304;2022-09-09T21:47:35;2.70;;;2.50;;
8361;SDS011;4218;48.326;14.304;2022-09-09T21:50:01;3.43;;;2.63;;
8361;SDS011;4218;48.326;14.304;2022-09-09T21:52:29;2.33;;;2.20;;
8361;SDS011;4218;48.326;14.304;2022-09-09T21:54:55;2.20;;;2.10;;
8361;SDS011;4218;48.326;14.304;2022-09-09T21:57:20;2.30;;;2.20;;
8361;SDS011;4218;48.326;14.304;2022-09-09T21:59:46;1.80;;;1.70;;
8361;SDS011;4218;48.326;14.304;2022-09-09T22:02:11;2.30;;;2.20;;
8361;SDS011;4218;48.326;14.304;2022-09-09T22:04:38;2.47;;;2.27;;
8361;SDS011;4218;48.326;14.304;2022-09-09T22:07:07;5.93;;;2.57;;